Time;durP1;ratioP1;P1;durP2;ratioP2;P2;SDS_P1;SDS_P2;PMS_P1;PMS_P2;Temp;Humidity;BMP_temperature;BMP_pressure;BME280_temperature;BME280_humidity;BME280_pressure;Samples;Min_cycle;Max_cycle;Signal;HPM_P1;HPM_P2
2022/12/25 00:00:43;;;;;;;41.03;17.37;;;10.30;99.90;;;;;;4957361;28;36177;-78
2022/12/25 00:03:09;;;;;;;40.07;15.57;;;10.30;99.90;;;;;;4962475;28;37742;-79
2022/12/25 00:05:38;;;;;;;45.67;14.87;;;10.30;99.90;;;;;;4945753;28;39817;-79
2022/12/25 00:08:05;;;;;;;35.30;16.60;;;10.30;99.90;;;;;;4968920;28;36916;-79
2022/12/25 00:10:32;;;;;;;40.73;15.03;;;10.30;99.90;;;;;;4946967;28;36529;-79
2022/12/25 00:12:58;;;;;;;33.57;15.30;;;10.30;99.90;;;;;;4945978;28;38633;-79
2022/12/25 00:15:26;;;;;;;36.30;15.00;;;10.40;99.90;;;;;;4945064;28;37441;-78
2022/12/25 00:17:53;;;;;;;44.17;15.97;;;10.30;99.90;;;;;;4938947;28;37098;-78
2022/12/25 00:20:19;;;;;;;35.83;17.30;;;10.30;99.90;;;;;;4959941;28;37781;-79
2022/12/25 00:22:45;;;;;;;43.13;16.57;;;10.30;99.90;;;;;;4962549;28;39759;-79
2022/12/25 00:25:11;;;;;;;41.17;15.47;;;10.30;99.90;;;;;;4940521;28;38518;-78
2022/12/25 00:27:37;;;;;;;38.63;16.17;;;10.20;99.90;;;;;;4935908;28;39356;-79
2022/12/25 00:30:06;;;;;;;44.90;17.43;;;10.30;99.90;;;;;;4967766;28;37313;-78
2022/12/25 00:32:36;;;;;;;34.33;16.13;;;10.20;99.90;;;;;;4955373;28;48851;-79
2022/12/25 00:35:06;;;;;;;35.37;15.80;;;10.30;99.90;;;;;;4959355;28;38206;-78
2022/12/25 00:37:32;;;;;;;38.67;17.47;;;10.20;99.90;;;;;;4967907;28;47062;-78
2022/12/25 00:39:58;;;;;;;28.67;15.60;;;10.20;99.90;;;;;;4935962;28;36044;-78
2022/12/25 00:42:25;;;;;;;39.70;16.80;;;10.30;99.90;;;;;;4939210;28;37665;-79
2022/12/25 00:44:52;;;;;;;29.87;15.07;;;10.30;99.90;;;;;;4951482;28;38601;-79
2022/12/25 00:47:18;;;;;;;46.23;17.80;;;10.30;99.90;;;;;;4950251;28;38152;-78
2022/12/25 00:49:44;;;;;;;32.77;17.27;;;10.30;99.90;;;;;;4950229;28;36914;-79
2022/12/25 00:52:10;;;;;;;38.27;17.60;;;10.30;99.90;;;;;;4957160;28;39127;-78
2022/12/25 00:54:37;;;;;;;39.40;17.87;;;10.20;99.90;;;;;;4939629;28;37527;-79
2022/12/25 00:57:03;;;;;;;32.53;16.80;;;10.20;99.90;;;;;;4958256;28;38874;-80
2022/12/25 00:59:33;;;;;;;45.70;19.80;;;10.20;99.90;;;;;;4940956;28;37174;-79
2022/12/25 01:02:22;;;;;;;38.27;17.67;;;10.20;99.90;;;;;;4957829;28;39469;-80
2022/12/25 01:04:46;;;;;;;37.43;17.53;;;10.20;99.90;;;;;;4948929;28;48652;-79
2022/12/25 01:07:12;;;;;;;42.13;18.00;;;10.20;99.90;;;;;;4941480;28;36641;-80
2022/12/25 01:12:23;;;;;;;39.37;19.23;;;10.20;99.90;;;;;;4962544;28;39487;-80
2022/12/25 01:14:49;;;;;;;45.53;20.80;;;10.20;99.90;;;;;;4939458;28;38740;-79
2022/12/25 01:17:15;;;;;;;35.53;19.33;;;10.20;99.90;;;;;;4938313;28;40353;-80
2022/12/25 01:19:42;;;;;;;35.33;19.43;;;10.20;99.90;;;;;;4946958;28;38965;-80
2022/12/25 01:22:11;;;;;;;43.80;21.07;;;10.20;99.90;;;;;;4940546;28;37114;-79
2022/12/25 01:24:37;;;;;;;39.23;21.30;;;10.30;99.90;;;;;;4950988;28;36786;-79
2022/12/25 01:27:03;;;;;;;38.23;20.33;;;10.30;99.90;;;;;;4940677;28;39334;-79
2022/12/25 01:29:30;;;;;;;42.03;20.97;;;10.30;99.90;;;;;;4938316;28;35827;-79
2022/12/25 01:31:56;;;;;;;40.93;20.60;;;10.30;99.90;;;;;;4959235;28;38795;-79
2022/12/25 01:34:22;;;;;;;40.20;21.13;;;10.30;99.90;;;;;;4938894;28;36995;-79
2022/12/25 01:36:48;;;;;;;41.33;21.47;;;10.30;99.90;;;;;;4943273;28;38864;-79
2022/12/25 01:39:14;;;;;;;36.00;20.57;;;10.30;99.90;;;;;;4940328;28;39747;-79
2022/12/25 01:41:41;;;;;;;39.17;21.93;;;10.30;99.90;;;;;;4953584;28;39766;-79
2022/12/25 01:44:13;;;;;;;40.93;20.20;;;10.30;99.90;;;;;;4937617;28;38567;-79
2022/12/25 01:46:39;;;;;;;42.95;22.90;;;10.30;99.90;;;;;;4941231;28;37499;-79
2022/12/25 01:49:14;;;;;;;51.50;24.47;;;10.30;99.90;;;;;;4940476;28;36580;-78
2022/12/25 01:52:05;;;;;;;48.17;24.20;;;10.30;99.90;;;;;;4958945;28;37375;-79
2022/12/25 01:54:59;;;;;;;43.87;22.23;;;10.30;99.90;;;;;;4959570;28;46951;-79
2022/12/25 01:57:33;;;;;;;42.63;22.97;;;10.30;99.90;;;;;;4956715;28;36732;-78
2022/12/25 02:00:00;;;;;;;47.67;24.60;;;10.40;99.90;;;;;;4963752;28;37596;-79
2022/12/25 02:02:29;;;;;;;48.30;24.40;;;10.40;99.90;;;;;;5403808;23;39288;-81
2022/12/25 02:05:02;;;;;;;40.70;23.10;;;10.40;99.90;;;;;;4970913;28;38039;-81
2022/12/25 02:07:31;;;;;;;;;;;10.40;99.90;;;;;;4975964;28;36839;-81
2022/12/25 02:09:57;;;;;;;46.43;22.90;;;10.40;99.90;;;;;;4977569;28;36594;-83
2022/12/25 02:12:26;;;;;;;46.33;23.43;;;10.40;99.90;;;;;;4979378;28;37656;-81
2022/12/25 02:14:55;;;;;;;44.63;25.00;;;10.40;99.90;;;;;;4995443;28;39252;-81
2022/12/25 02:17:39;;;;;;;43.30;23.57;;;10.40;99.90;;;;;;4994313;28;38597;-81
2022/12/25 02:20:24;;;;;;;46.03;24.07;;;10.40;99.90;;;;;;4992049;28;36391;-80
2022/12/25 02:23:20;;;;;;;52.60;25.67;;;10.50;99.90;;;;;;4990708;28;37856;-83
2022/12/25 02:25:49;;;;;;;46.83;24.30;;;10.40;99.90;;;;;;4970894;28;46759;-81
2022/12/25 02:28:20;;;;;;;49.27;26.90;;;10.50;99.90;;;;;;4972631;28;37787;-81
2022/12/25 02:31:07;;;;;;;51.53;28.70;;;10.50;99.90;;;;;;4991123;28;37413;-81
2022/12/25 02:34:03;;;;;;;47.63;27.17;;;10.50;99.90;;;;;;4985331;28;47493;-82
2022/12/25 02:36:50;;;;;;;47.87;28.37;;;10.50;99.90;;;;;;4975274;28;47067;-81
2022/12/25 02:42:13;;;;;;;55.53;30.60;;;10.40;99.90;;;;;;4990110;28;39134;-80
2022/12/25 03:07:06;;;;;;;60.87;32.13;;;10.40;99.90;;;;;;4995038;28;39711;-81
2022/12/25 03:12:33;;;;;;;52.53;30.50;;;10.40;99.90;;;;;;4992598;28;38277;-81
2022/12/25 03:17:46;;;;;;;52.03;29.40;;;10.50;99.90;;;;;;4954262;28;49467;-82
2022/12/25 03:28:27;;;;;;;49.63;27.83;;;10.50;99.90;;;;;;4995803;28;40232;-81
2022/12/25 03:31:12;;;;;;;48.03;27.60;;;10.50;99.90;;;;;;4984698;28;37356;-82
2022/12/25 04:36:20;;;;;;;29.43;16.17;;;10.50;99.90;;;;;;4987588;28;39598;-82
2022/12/25 04:38:46;;;;;;;34.03;18.77;;;10.50;99.90;;;;;;4993104;28;38582;-81
2022/12/25 04:41:13;;;;;;;33.17;18.73;;;10.50;99.90;;;;;;4983311;28;38014;-82
2022/12/25 04:43:39;;;;;;;31.77;18.83;;;10.40;99.90;;;;;;4976833;28;36295;-81
2022/12/25 04:46:06;;;;;;;29.83;18.53;;;10.40;99.90;;;;;;4980738;28;38892;-81
2022/12/25 04:48:34;;;;;;;33.03;18.57;;;10.40;99.90;;;;;;4977227;28;47056;-81
2022/12/25 04:51:10;;;;;;;33.07;17.97;;;10.40;99.90;;;;;;4986009;28;37034;-81
2022/12/25 04:53:36;;;;;;;32.53;17.40;;;10.40;99.90;;;;;;4978883;28;47110;-82
2022/12/25 04:56:03;;;;;;;31.67;16.07;;;10.40;99.90;;;;;;4997356;28;38678;-82
2022/12/25 04:58:31;;;;;;;28.23;14.27;;;10.40;99.90;;;;;;4977197;28;37373;-81
2022/12/25 05:01:01;;;;;;;25.13;14.70;;;10.40;99.90;;;;;;4994785;28;39100;-81
2022/12/25 05:03:28;;;;;;;28.40;12.80;;;10.40;99.90;;;;;;4982544;28;37161;-81
2022/12/25 05:05:54;;;;;;;20.83;11.63;;;10.40;99.90;;;;;;4980958;28;37518;-81
2022/12/25 05:08:20;;;;;;;20.60;10.43;;;10.40;99.90;;;;;;4975168;28;37097;-81
2022/12/25 05:10:47;;;;;;;22.63;10.83;;;10.50;99.90;;;;;;4996757;28;38160;-81
2022/12/25 05:13:13;;;;;;;26.53;9.77;;;10.50;99.90;;;;;;4982981;28;36365;-81
2022/12/25 05:15:41;;;;;;;17.17;9.10;;;10.50;99.90;;;;;;4983865;28;37794;-82
2022/12/25 05:18:07;;;;;;;19.70;9.73;;;10.50;99.90;;;;;;4996950;28;38571;-81
2022/12/25 05:20:34;;;;;;;20.97;10.47;;;10.50;99.90;;;;;;4979875;28;36970;-81
2022/12/25 05:23:00;;;;;;;26.40;9.63;;;10.50;99.90;;;;;;4980173;28;35868;-81
2022/12/25 05:25:26;;;;;;;13.67;9.83;;;10.50;99.90;;;;;;4975773;28;37775;-81
2022/12/25 05:27:52;;;;;;;20.80;10.83;;;10.50;99.90;;;;;;5000852;28;39601;-81
2022/12/25 05:30:18;;;;;;;21.13;11.17;;;10.50;99.90;;;;;;4979039;28;36949;-81
2022/12/25 05:32:45;;;;;;;22.20;10.50;;;10.50;99.90;;;;;;4992881;28;37648;-81
2022/12/25 05:35:11;;;;;;;18.03;10.43;;;10.50;99.90;;;;;;4985640;28;38065;-81
2022/12/25 05:37:38;;;;;;;16.53;10.53;;;10.50;99.90;;;;;;4986059;28;39686;-81
2022/12/25 05:40:05;;;;;;;19.53;10.60;;;10.50;99.90;;;;;;4968952;28;37660;-81
2022/12/25 05:42:31;;;;;;;19.67;9.93;;;10.50;99.90;;;;;;4968297;28;47152;-82
2022/12/25 05:44:57;;;;;;;16.00;10.13;;;10.50;99.90;;;;;;4990370;28;38910;-82
2022/12/25 05:47:23;;;;;;;16.90;9.87;;;10.50;99.90;;;;;;4974946;28;37463;-81
2022/12/25 05:49:49;;;;;;;17.27;8.50;;;10.50;99.90;;;;;;4988991;28;36079;-81
2022/12/25 05:52:15;;;;;;;12.03;8.50;;;10.50;99.90;;;;;;4987476;28;37400;-81
2022/12/25 05:54:41;;;;;;;13.13;7.37;;;10.50;99.90;;;;;;4974243;28;38709;-81
2022/12/25 05:57:07;;;;;;;13.37;8.33;;;10.50;99.90;;;;;;4991164;28;39165;-82
2022/12/25 05:59:33;;;;;;;16.80;8.43;;;10.50;99.90;;;;;;4990641;28;38058;-81
2022/12/25 06:01:59;;;;;;;12.37;8.37;;;10.40;99.90;;;;;;4973604;28;36474;-81
2022/12/25 06:04:25;;;;;;;18.67;8.70;;;10.40;99.90;;;;;;4970865;28;38068;-82
2022/12/25 06:06:52;;;;;;;15.57;7.67;;;10.40;99.90;;;;;;4969758;28;39400;-81
2022/12/25 06:09:18;;;;;;;16.20;7.83;;;10.40;99.90;;;;;;4973515;28;36956;-81
2022/12/25 06:11:44;;;;;;;14.50;7.47;;;10.50;99.90;;;;;;4973390;28;36111;-81
2022/12/25 06:14:15;;;;;;;11.97;7.63;;;10.40;99.90;;;;;;4991858;28;37240;-81
2022/12/25 06:16:41;;;;;;;12.90;7.10;;;10.40;99.90;;;;;;4974510;28;37380;-81
2022/12/25 06:19:07;;;;;;;13.33;7.73;;;10.40;99.90;;;;;;4987836;28;37468;-81
2022/12/25 06:21:33;;;;;;;13.80;7.10;;;10.40;99.90;;;;;;4990033;28;37978;-82
2022/12/25 06:24:00;;;;;;;10.30;7.00;;;10.40;99.90;;;;;;4991075;28;39639;-82
2022/12/25 06:26:26;;;;;;;10.60;6.77;;;10.40;99.90;;;;;;4981521;28;37102;-81
2022/12/25 06:28:52;;;;;;;12.17;7.20;;;10.40;99.90;;;;;;4976327;28;36900;-81
2022/12/25 06:31:21;;;;;;;11.50;7.10;;;10.40;99.90;;;;;;4974466;28;37060;-81
2022/12/25 06:33:48;;;;;;;11.97;7.20;;;10.40;99.90;;;;;;4985569;28;37476;-81
2022/12/25 06:36:17;;;;;;;9.90;6.77;;;10.40;99.90;;;;;;4984936;28;39428;-81
2022/12/25 06:38:43;;;;;;;13.63;7.50;;;10.40;99.90;;;;;;4987895;28;38323;-81
2022/12/25 06:41:15;;;;;;;10.63;6.93;;;10.40;99.90;;;;;;4973398;28;35241;-81
2022/12/25 06:43:41;;;;;;;8.07;6.18;;;10.40;99.90;;;;;;4986002;28;39035;-82
2022/12/25 06:46:10;;;;;;;10.33;6.50;;;10.40;99.90;;;;;;4968908;28;38654;-81
2022/12/25 06:48:39;;;;;;;11.73;8.27;;;10.40;99.90;;;;;;4973102;28;37760;-81
2022/12/25 06:51:05;;;;;;;10.37;7.70;;;10.40;99.90;;;;;;4969609;28;36190;-81
2022/12/25 06:53:32;;;;;;;8.33;6.10;;;10.50;99.90;;;;;;4988114;28;39222;-82
2022/12/25 06:56:06;;;;;;;8.50;6.70;;;10.50;99.90;;;;;;4969654;28;37603;-81
2022/12/25 06:58:32;;;;;;;10.73;7.17;;;10.50;99.90;;;;;;4986425;28;47135;-81
2022/12/25 07:00:58;;;;;;;10.43;6.80;;;10.50;99.90;;;;;;4983959;28;36184;-82
2022/12/25 07:03:28;;;;;;;6.83;5.97;;;10.50;99.90;;;;;;4990707;28;38249;-81
2022/12/25 07:05:54;;;;;;;9.50;6.23;;;10.50;99.90;;;;;;4985805;28;38293;-82
2022/12/25 07:08:20;;;;;;;7.83;5.83;;;10.40;99.90;;;;;;4972207;28;38240;-82
2022/12/25 07:10:46;;;;;;;10.40;6.70;;;10.50;99.90;;;;;;4994765;28;37696;-81
2022/12/25 07:13:12;;;;;;;9.30;6.87;;;10.40;99.90;;;;;;4979289;28;37547;-81
2022/12/25 07:15:38;;;;;;;12.70;6.70;;;10.40;99.90;;;;;;4980151;28;37269;-82
2022/12/25 07:18:04;;;;;;;9.13;6.43;;;10.40;99.90;;;;;;4984173;28;37023;-81
2022/12/25 07:20:30;;;;;;;8.13;6.23;;;10.40;99.90;;;;;;4981692;28;35934;-82
2022/12/25 07:22:57;;;;;;;7.57;6.27;;;10.40;99.90;;;;;;4992818;28;40032;-82
2022/12/25 07:25:23;;;;;;;8.10;6.20;;;10.40;99.90;;;;;;4992554;28;39259;-81
2022/12/25 07:27:49;;;;;;;10.73;6.77;;;10.40;99.90;;;;;;4975535;28;36945;-82
2022/12/25 07:30:15;;;;;;;9.63;7.73;;;10.50;99.90;;;;;;4969595;28;36151;-81
2022/12/25 07:32:41;;;;;;;9.90;6.77;;;10.50;99.90;;;;;;4975928;28;37643;-82
2022/12/25 07:35:08;;;;;;;9.53;6.40;;;10.50;99.90;;;;;;4989789;28;38927;-81
2022/12/25 07:37:34;;;;;;;12.33;6.80;;;10.40;99.90;;;;;;4969904;28;36849;-81
2022/12/25 07:40:00;;;;;;;8.83;6.60;;;10.50;99.90;;;;;;4984820;28;37372;-82
2022/12/25 07:42:26;;;;;;;7.53;6.60;;;10.50;99.90;;;;;;4985573;28;38502;-82
2022/12/25 07:44:52;;;;;;;8.93;7.30;;;10.50;99.90;;;;;;4968886;28;37100;-82
2022/12/25 07:47:18;;;;;;;9.80;6.77;;;10.50;99.90;;;;;;4984419;28;36787;-81
2022/12/25 07:49:44;;;;;;;8.77;6.87;;;10.50;99.90;;;;;;4968810;28;36302;-81
2022/12/25 07:52:10;;;;;;;10.27;7.23;;;10.50;99.90;;;;;;4967929;28;37799;-82
2022/12/25 07:54:37;;;;;;;9.40;6.20;;;10.50;99.90;;;;;;4971985;28;37104;-81
2022/12/25 07:57:03;;;;;;;9.20;6.70;;;10.50;99.90;;;;;;4988690;28;37893;-81
2022/12/25 07:59:29;;;;;;;10.30;7.23;;;10.50;99.90;;;;;;4969048;28;35851;-82
2022/12/25 08:01:55;;;;;;;11.07;6.47;;;10.50;99.90;;;;;;4985373;28;38293;-81
2022/12/25 08:04:21;;;;;;;12.67;7.17;;;10.60;99.90;;;;;;4973685;28;38411;-81
2022/12/25 08:06:47;;;;;;;15.33;8.30;;;10.50;99.90;;;;;;4971477;28;38095;-81
2022/12/25 08:09:13;;;;;;;11.53;6.53;;;10.60;99.90;;;;;;4977503;28;37311;-81
2022/12/25 08:11:44;;;;;;;10.23;6.30;;;10.60;99.90;;;;;;4991972;28;39929;-81
2022/12/25 08:14:10;;;;;;;7.80;6.50;;;10.60;99.90;;;;;;4971635;28;37120;-82
2022/12/25 08:16:40;;;;;;;8.17;6.90;;;10.60;99.90;;;;;;4971720;28;36598;-82
2022/12/25 08:19:08;;;;;;;12.93;7.00;;;10.60;99.90;;;;;;4962612;28;38358;-81
2022/12/25 08:21:34;;;;;;;10.97;6.40;;;10.60;99.90;;;;;;4970522;28;37755;-82
2022/12/25 08:24:01;;;;;;;14.00;7.40;;;10.50;99.90;;;;;;4979364;28;37855;-82
2022/12/25 08:26:28;;;;;;;10.53;6.67;;;10.60;99.90;;;;;;4992318;28;49007;-81
2022/12/25 08:28:54;;;;;;;10.10;6.93;;;10.60;99.90;;;;;;4996431;28;38761;-81
2022/12/25 08:31:28;;;;;;;11.33;7.63;;;10.50;99.90;;;;;;4992437;28;38587;-82
2022/12/25 08:33:57;;;;;;;13.67;7.67;;;10.50;99.90;;;;;;4984026;28;38887;-82
2022/12/25 08:36:23;;;;;;;10.67;7.83;;;10.50;99.90;;;;;;4968842;28;37006;-81
2022/12/25 08:38:50;;;;;;;14.93;9.20;;;10.40;99.90;;;;;;4973958;28;39224;-81
2022/12/25 08:41:16;;;;;;;13.93;10.13;;;10.40;99.90;;;;;;4987961;28;38659;-81
2022/12/25 08:43:43;;;;;;;16.60;11.13;;;10.40;99.90;;;;;;4990127;28;38263;-82
2022/12/25 08:46:09;;;;;;;21.13;13.10;;;10.40;99.90;;;;;;4962382;28;37210;-82
2022/12/25 08:48:35;;;;;;;16.10;13.53;;;10.40;99.90;;;;;;4961244;28;36359;-82
2022/12/25 08:51:13;;;;;;;16.50;13.00;;;10.40;99.90;;;;;;4982514;28;37912;-82
2022/12/25 08:53:44;;;;;;;19.60;14.57;;;10.40;99.90;;;;;;4986587;28;48016;-82
2022/12/25 08:56:25;;;;;;;21.20;15.30;;;10.40;99.90;;;;;;4974148;28;38396;-82
2022/12/25 08:58:51;;;;;;;22.00;14.40;;;10.40;99.90;;;;;;4974423;28;36732;-82
2022/12/25 09:01:18;;;;;;;20.33;14.10;;;10.40;99.90;;;;;;4981399;28;39267;-82
2022/12/25 09:03:44;;;;;;;16.63;12.53;;;10.30;99.90;;;;;;4994356;28;38712;-81
2022/12/25 09:06:13;;;;;;;23.93;13.13;;;10.40;99.90;;;;;;4985249;28;37366;-82
2022/12/25 09:08:39;;;;;;;19.33;12.40;;;10.30;99.90;;;;;;4994119;28;37830;-81
2022/12/25 09:11:09;;;;;;;15.40;11.67;;;10.30;99.90;;;;;;4976049;28;38905;-80
2022/12/25 09:13:35;;;;;;;17.27;11.50;;;10.40;99.90;;;;;;4993213;28;38932;-82
2022/12/25 09:16:06;;;;;;;15.83;10.87;;;10.40;99.90;;;;;;4995815;28;39723;-80
2022/12/25 09:18:42;;;;;;;18.70;10.57;;;10.40;99.90;;;;;;4983906;28;48453;-83
2022/12/25 09:21:27;;;;;;;13.83;10.93;;;10.40;99.90;;;;;;4965875;28;39211;-84
2022/12/25 09:26:50;;;;;;;13.83;10.40;;;10.40;99.90;;;;;;5252785;23;20057;-84
2022/12/25 09:29:37;;;;;;;15.07;10.63;;;10.40;99.90;;;;;;5005273;28;37734;-85
2022/12/25 09:32:47;;;;;;;14.17;9.70;;;10.40;99.90;;;;;;4987233;28;39476;-84
2022/12/25 09:37:51;;;;;;;17.70;11.10;;;10.40;99.90;;;;;;5977750;23;20122;-82
2022/12/25 09:40:20;;;;;;;15.93;11.33;;;10.40;99.90;;;;;;4972327;28;36736;-83
2022/12/25 09:42:48;;;;;;;14.93;10.73;;;10.40;99.90;;;;;;4972628;28;37548;-83
2022/12/25 09:45:36;;;;;;;14.87;10.90;;;10.40;99.90;;;;;;4984880;28;38486;-85
2022/12/25 09:48:31;;;;;;;18.33;11.47;;;10.30;99.90;;;;;;4992549;28;37827;-83
2022/12/25 09:51:18;;;;;;;16.07;11.07;;;10.40;99.90;;;;;;4978168;28;48037;-82
2022/12/25 09:53:54;;;;;;;17.90;10.33;;;10.30;99.90;;;;;;4985813;28;49965;-82
2022/12/25 09:56:26;;;;;;;18.17;11.43;;;10.30;99.90;;;;;;4984430;28;39666;-83
2022/12/25 09:58:53;;;;;;;17.98;12.32;;;10.30;99.90;;;;;;4970938;28;38085;-83
2022/12/25 10:01:38;;;;;;;13.87;10.40;;;10.30;99.90;;;;;;4974634;28;36464;-82
2022/12/25 10:04:43;;;;;;;16.63;11.93;;;10.30;99.90;;;;;;4992875;28;38926;-81
2022/12/25 10:07:30;;;;;;;21.13;14.57;;;10.30;99.90;;;;;;4993861;28;38593;-82
2022/12/25 10:10:14;;;;;;;38.23;26.57;;;10.20;99.90;;;;;;4987983;28;39594;-82
2022/12/25 10:13:01;;;;;;;36.07;25.10;;;10.30;99.90;;;;;;4990820;28;47110;-84
2022/12/25 10:15:52;;;;;;;25.10;19.43;;;10.30;99.90;;;;;;4991487;28;38309;-83
2022/12/25 10:18:35;;;;;;;23.50;16.83;;;10.30;99.90;;;;;;4977504;28;37619;-83
2022/12/25 10:21:03;;;;;;;21.13;13.90;;;10.30;99.90;;;;;;4988381;28;36634;-83
2022/12/25 10:24:04;;;;;;;20.10;12.70;;;10.30;99.90;;;;;;4978276;28;38925;-83
2022/12/25 10:26:32;;;;;;;18.53;12.47;;;10.30;99.90;;;;;;4982944;28;47663;-82
2022/12/25 10:29:11;;;;;;;15.33;11.33;;;10.30;99.90;;;;;;4995586;28;37143;-82
2022/12/25 10:31:53;;;;;;;20.97;13.50;;;10.30;99.90;;;;;;4978271;28;47533;-82
2022/12/25 10:40:42;;;;;;;24.73;14.68;;;10.20;99.90;;;;;;5330696;23;20057;-82
2022/12/25 10:43:18;;;;;;;18.03;11.87;;;10.20;99.90;;;;;;4989453;28;37139;-82
2022/12/25 10:45:47;;;;;;;19.73;13.70;;;10.30;99.90;;;;;;4999721;28;39042;-81
2022/12/25 10:48:21;;;;;;;18.70;12.73;;;10.30;99.90;;;;;;4983713;28;37508;-81
2022/12/25 10:50:51;;;;;;;17.53;12.07;;;10.30;99.90;;;;;;5004865;28;36862;-81
2022/12/25 10:53:22;;;;;;;17.20;12.83;;;10.40;99.90;;;;;;5001617;28;37226;-83
2022/12/25 10:56:17;;;;;;;18.17;12.70;;;10.40;99.90;;;;;;5006119;28;36338;-82
2022/12/25 10:58:43;;;;;;;21.47;12.70;;;10.40;99.90;;;;;;4987268;28;48845;-82
2022/12/25 11:01:10;;;;;;;17.20;13.20;;;10.40;99.90;;;;;;4998102;28;38728;-81
2022/12/25 11:03:39;;;;;;;19.43;12.43;;;10.40;99.90;;;;;;4980269;28;38043;-81
2022/12/25 11:06:17;;;;;;;17.00;12.27;;;10.40;99.90;;;;;;4976107;28;36110;-79
2022/12/25 11:08:53;;;;;;;16.03;11.57;;;10.40;99.90;;;;;;4988987;28;46993;-81
2022/12/25 11:11:20;;;;;;;16.37;11.37;;;10.40;99.90;;;;;;4995875;28;38683;-80
2022/12/25 11:13:58;;;;;;;16.27;11.17;;;10.40;99.90;;;;;;4991586;28;38609;-80
2022/12/25 11:16:32;;;;;;;19.00;11.97;;;10.40;99.90;;;;;;4992503;28;38081;-81
2022/12/25 11:18:59;;;;;;;18.00;12.40;;;10.40;99.90;;;;;;4978673;28;38723;-81
2022/12/25 11:21:27;;;;;;;14.10;11.10;;;10.40;99.90;;;;;;4989984;28;37486;-80
2022/12/25 11:24:05;;;;;;;17.43;11.40;;;10.40;99.90;;;;;;4975729;28;36647;-81
2022/12/25 11:26:45;;;;;;;21.00;12.33;;;10.40;99.90;;;;;;4975584;28;47210;-81
2022/12/25 11:29:23;;;;;;;17.97;11.83;;;10.50;99.90;;;;;;4977586;28;37692;-79
2022/12/25 11:31:51;;;;;;;19.10;11.97;;;10.40;99.90;;;;;;4966916;28;37459;-82
2022/12/25 11:34:35;;;;;;;18.03;11.30;;;10.50;99.90;;;;;;4996606;28;38718;-82
2022/12/25 11:37:02;;;;;;;16.33;12.10;;;10.50;99.90;;;;;;4999545;28;38281;-81
2022/12/25 11:39:36;;;;;;;14.53;11.20;;;10.50;99.90;;;;;;4979931;28;47335;-81
2022/12/25 11:42:43;;;;;;;14.30;10.13;;;10.50;99.90;;;;;;4997804;28;37795;-82
2022/12/25 11:45:34;;;;;;;16.23;10.67;;;10.50;99.90;;;;;;4868542;29;47258;-82
2022/12/25 11:48:17;;;;;;;12.80;10.13;;;10.50;99.90;;;;;;4979100;28;35960;-82
2022/12/25 11:51:00;;;;;;;;;;;10.50;99.90;;;;;;4989657;28;47151;-83
2022/12/25 11:53:34;;;;;;;14.10;11.40;;;10.50;99.90;;;;;;4984409;28;37731;-83
2022/12/25 11:56:07;;;;;;;16.13;10.97;;;10.60;99.90;;;;;;5000034;28;39449;-82
2022/12/25 11:58:45;;;;;;;15.77;11.63;;;10.60;99.90;;;;;;4990697;28;49350;-81
2022/12/25 12:01:22;;;;;;;17.03;11.20;;;10.60;99.90;;;;;;4990997;28;38939;-81
2022/12/25 12:03:48;;;;;;;19.90;12.53;;;10.60;99.90;;;;;;4981709;28;37076;-80
2022/12/25 12:06:35;;;;;;;18.00;12.37;;;10.50;99.90;;;;;;4999066;28;36604;-81
2022/12/25 12:09:21;;;;;;;19.40;12.83;;;10.50;99.90;;;;;;4984391;28;36505;-80
2022/12/25 12:12:18;;;;;;;16.97;13.10;;;10.50;99.90;;;;;;4998546;28;48828;-81
2022/12/25 12:15:02;;;;;;;22.90;13.47;;;10.40;99.90;;;;;;4930707;28;47117;-83
2022/12/25 12:17:28;;;;;;;23.70;14.70;;;10.40;99.90;;;;;;5004315;28;38326;-83
2022/12/25 12:19:54;;;;;;;19.67;14.43;;;10.40;99.90;;;;;;5001869;28;38955;-84
2022/12/25 12:22:24;;;;;;;21.23;13.83;;;10.30;99.90;;;;;;5000586;28;35342;-85
2022/12/25 12:25:04;;;;;;;20.30;15.23;;;10.30;99.90;;;;;;4990632;28;37144;-84
2022/12/25 12:27:39;;;;;;;22.10;14.90;;;10.30;99.90;;;;;;5008364;28;48047;-82
2022/12/25 12:30:20;;;;;;;22.07;15.97;;;10.30;99.90;;;;;;4996530;28;38030;-83
2022/12/25 12:32:51;;;;;;;18.07;13.50;;;10.30;99.90;;;;;;4987322;28;37817;-84
2022/12/25 12:35:29;;;;;;;18.63;14.45;;;10.30;99.90;;;;;;5003341;28;21406;-81
2022/12/25 12:38:16;;;;;;;23.07;15.20;;;10.40;99.90;;;;;;4998727;28;38143;-82
2022/12/25 12:40:50;;;;;;;22.30;14.83;;;10.30;99.90;;;;;;4987502;28;46783;-82
2022/12/25 12:43:38;;;;;;;20.63;14.23;;;10.40;99.90;;;;;;5015055;28;37490;-81
2022/12/25 12:46:20;;;;;;;22.40;15.33;;;10.40;99.90;;;;;;5009470;28;36347;-83
2022/12/25 12:48:52;;;;;;;27.75;16.70;;;10.40;99.90;;;;;;5002380;28;47530;-81
2022/12/25 12:51:31;;;;;;;21.08;14.90;;;10.50;99.90;;;;;;4988895;28;36918;-82
2022/12/25 12:54:06;;;;;;;22.20;15.40;;;10.50;99.90;;;;;;4994369;28;37384;-81
2022/12/25 12:56:32;;;;;;;22.57;14.83;;;10.50;99.90;;;;;;4993847;28;48366;-81
2022/12/25 12:58:59;;;;;;;24.77;16.23;;;10.40;99.90;;;;;;4996923;28;37930;-82
2022/12/25 13:02:00;;;;;;;21.47;15.00;;;10.50;99.90;;;;;;4992626;28;36039;-81
2022/12/25 13:05:05;;;;;;;23.73;15.53;;;10.40;99.90;;;;;;4976776;28;38626;-82
2022/12/25 13:07:50;;;;;;;25.00;16.43;;;10.40;99.90;;;;;;5001019;28;47424;-83
2022/12/25 13:10:36;;;;;;;21.10;14.73;;;10.40;99.90;;;;;;5005431;28;37374;-82
2022/12/25 13:13:10;;;;;;;27.80;17.07;;;10.40;99.90;;;;;;5003037;28;39380;-81
2022/12/25 13:15:37;;;;;;;22.50;15.27;;;10.30;99.90;;;;;;5000322;28;48162;-82
2022/12/25 13:18:12;;;;;;;22.87;15.10;;;10.30;99.90;;;;;;5010078;28;38156;-82
2022/12/25 13:20:53;;;;;;;25.97;15.13;;;10.30;99.90;;;;;;5008988;28;37347;-82
2022/12/25 13:23:46;;;;;;;23.73;16.13;;;10.30;99.90;;;;;;5022421;28;36744;-83
2022/12/25 13:26:16;;;;;;;21.17;15.73;;;10.30;99.90;;;;;;5003489;28;38006;-80
2022/12/25 13:28:48;;;;;;;19.90;14.97;;;10.30;99.90;;;;;;5304928;22;39778;-82
2022/12/25 13:44:23;;;;;;;24.97;16.37;;;10.30;99.90;;;;;;5856443;23;20453;-84
2022/12/25 13:46:50;;;;;;;22.33;16.10;;;10.20;99.90;;;;;;5303964;23;38976;-85
2022/12/25 13:57:14;;;;;;;32.13;19.23;;;10.30;99.90;;;;;;5356276;23;20050;-82
2022/12/25 13:59:47;;;;;;;24.97;18.47;;;10.30;99.90;;;;;;4996698;28;37711;-83
2022/12/25 14:04:49;;;;;;;23.60;17.30;;;10.30;99.90;;;;;;5295824;23;20034;-82
2022/12/25 14:07:19;;;;;;;29.47;21.00;;;10.30;99.90;;;;;;5086165;23;37700;-83
2022/12/25 14:10:03;;;;;;;30.80;22.50;;;10.30;99.90;;;;;;5019648;28;39927;-83
2022/12/25 14:20:40;;;;;;;27.60;19.20;;;10.30;99.90;;;;;;5919681;23;20022;-82
2022/12/25 14:23:50;;;;;;;30.90;21.40;;;10.30;99.90;;;;;;4958238;28;38510;-83
2022/12/25 14:26:35;;;;;;;28.67;20.60;;;10.40;99.90;;;;;;4922697;28;38004;-82
2022/12/25 14:29:41;;;;;;;29.57;20.47;;;10.40;99.90;;;;;;4954222;28;37730;-83
2022/12/25 14:32:15;;;;;;;28.70;20.13;;;10.30;99.90;;;;;;4932103;28;48781;-82
2022/12/25 14:34:45;;;;;;;27.27;19.97;;;10.30;99.90;;;;;;4959971;28;37603;-85
2022/12/25 14:37:24;;;;;;;34.23;21.80;;;10.30;99.90;;;;;;4963468;28;38016;-84
2022/12/25 14:40:44;;;;;;;25.43;19.07;;;10.30;99.90;;;;;;5196837;23;39770;-85
2022/12/25 14:43:36;;;;;;;28.57;21.37;;;10.30;99.90;;;;;;4926712;28;49350;-85
2022/12/25 14:46:27;;;;;;;29.73;21.70;;;10.30;99.90;;;;;;4967244;28;40959;-84
2022/12/25 14:51:59;;;;;;;27.33;21.77;;;10.30;99.90;;;;;;5971664;23;21023;-82
2022/12/25 14:54:32;;;;;;;24.30;20.07;;;10.30;99.90;;;;;;4993610;28;38504;-82
2022/12/25 14:56:58;;;;;;;31.73;22.83;;;10.40;99.90;;;;;;4994548;28;38763;-81
2022/12/25 14:59:33;;;;;;;33.87;23.67;;;10.30;99.90;;;;;;5005718;28;36978;-83
2022/12/25 15:01:59;;;;;;;24.37;19.73;;;10.30;99.90;;;;;;4988593;28;38899;-83
2022/12/25 15:04:35;;;;;;;26.90;21.60;;;10.30;99.90;;;;;;4994673;28;38275;-83
2022/12/25 15:07:44;;;;;;;25.30;21.33;;;10.30;99.90;;;;;;5014553;28;37934;-83
2022/12/25 15:18:01;;;;;;;28.07;22.40;;;10.30;99.90;;;;;;5824337;23;19922;-82
2022/12/25 15:23:04;;;;;;;34.40;24.73;;;10.40;99.90;;;;;;5685705;23;20082;-79
2022/12/25 15:25:32;;;;;;;28.87;22.77;;;10.40;99.90;;;;;;4992521;28;39063;-82
2022/12/25 15:28:01;;;;;;;26.67;20.87;;;10.40;99.90;;;;;;4974440;28;38096;-82
2022/12/25 15:33:39;;;;;;;29.93;23.13;;;10.40;99.90;;;;;;5815870;23;20048;-82
2022/12/25 15:44:41;;;;;;;42.93;31.27;;;10.40;99.90;;;;;;5320401;23;41865;-83
2022/12/25 15:47:14;;;;;;;37.13;26.87;;;10.40;99.90;;;;;;4993714;28;37595;-83
2022/12/25 15:49:42;;;;;;;40.00;27.07;;;10.30;99.90;;;;;;4998373;28;38581;-84